sensor_id;sensor_type;location;lat;lon;timestamp;temperature;humidity
45619;DHT22;31343;47.520;19.144;2023-06-10T00:02:05;18.00;99.90
45619;DHT22;31343;47.520;19.144;2023-06-10T00:04:32;18.00;99.90
45619;DHT22;31343;47.520;19.144;2023-06-10T00:06:58;17.90;99.90
45619;DHT22;31343;47.520;19.144;2023-06-10T00:09:23;17.80;99.90
45619;DHT22;31343;47.520;19.144;2023-06-10T00:11:49;17.70;99.90
45619;DHT22;31343;47.520;19.144;2023-06-10T00:14:15;17.60;99.90
45619;DHT22;31343;47.520;19.144;2023-06-10T00:16:41;17.60;99.90
45619;DHT22;31343;47.520;19.144;2023-06-10T00:19:11;17.60;99.90
45619;DHT22;31343;47.520;19.144;2023-06-10T00:21:41;17.60;99.90
45619;DHT22;31343;47.520;19.144;2023-06-10T00:24:07;17.60;99.90
45619;DHT22;31343;47.520;19.144;2023-06-10T00:26:38;17.60;99.90
45619;DHT22;31343;47.520;19.144;2023-06-10T00:29:04;17.60;99.90
45619;DHT22;31343;47.520;19.144;2023-06-10T00:31:30;17.50;99.90
45619;DHT22;31343;47.520;19.144;2023-06-10T00:33:56;17.50;99.90
45619;DHT22;31343;47.520;19.144;2023-06-10T00:36:22;17.40;99.90
45619;DHT22;31343;47.520;19.144;2023-06-10T00:38:48;17.40;99.90
45619;DHT22;31343;47.520;19.144;2023-06-10T00:41:14;17.40;99.90
45619;DHT22;31343;47.520;19.144;2023-06-10T00:43:40;17.40;99.90
45619;DHT22;31343;47.520;19.144;2023-06-10T00:46:06;17.30;99.90
45619;DHT22;31343;47.520;19.144;2023-06-10T00:48:32;17.30;99.90
45619;DHT22;31343;47.520;19.144;2023-06-10T00:50:58;17.30;99.90
45619;DHT22;31343;47.520;19.144;2023-06-10T00:53:25;17.30;99.90
45619;DHT22;31343;47.520;19.144;2023-06-10T00:55:51;17.20;99.90
45619;DHT22;31343;47.520;19.144;2023-06-10T00:58:18;17.20;99.90
45619;DHT22;31343;47.520;19.144;2023-06-10T01:00:44;17.20;99.90
45619;DHT22;31343;47.520;19.144;2023-06-10T01:03:11;17.20;99.90
45619;DHT22;31343;47.520;19.144;2023-06-10T01:05:38;17.10;99.90
45619;DHT22;31343;47.520;19.144;2023-06-10T01:08:28;17.20;99.90
45619;DHT22;31343;47.520;19.144;2023-06-10T01:11:00;17.10;99.90
45619;DHT22;31343;47.520;19.144;2023-06-10T01:13:28;17.10;99.90
45619;DHT22;31343;47.520;19.144;2023-06-10T01:15:55;17.00;99.90
45619;DHT22;31343;47.520;19.144;2023-06-10T01:18:22;17.00;99.90
45619;DHT22;31343;47.520;19.144;2023-06-10T01:20:47;16.90;99.90
45619;DHT22;31343;47.520;19.144;2023-06-10T01:23:14;16.90;99.90
45619;DHT22;31343;47.520;19.144;2023-06-10T01:25:46;16.90;99.90
45619;DHT22;31343;47.520;19.144;2023-06-10T01:33:39;16.90;99.90
45619;DHT22;31343;47.520;19.144;2023-06-10T01:36:07;16.90;99.90
45619;DHT22;31343;47.520;19.144;2023-06-10T01:38:38;16.90;99.90
45619;DHT22;31343;47.520;19.144;2023-06-10T01:41:06;16.90;99.90
45619;DHT22;31343;47.520;19.144;2023-06-10T01:43:34;16.90;99.90
45619;DHT22;31343;47.520;19.144;2023-06-10T01:46:00;16.90;99.90
45619;DHT22;31343;47.520;19.144;2023-06-10T01:48:27;16.90;99.90
45619;DHT22;31343;47.520;19.144;2023-06-10T01:50:52;16.80;99.90
45619;DHT22;31343;47.520;19.144;2023-06-10T01:53:18;16.90;99.90
45619;DHT22;31343;47.520;19.144;2023-06-10T01:55:45;16.90;99.90
45619;DHT22;31343;47.520;19.144;2023-06-10T01:58:11;16.90;99.90
45619;DHT22;31343;47.520;19.144;2023-06-10T02:00:37;16.90;99.90
45619;DHT22;31343;47.520;19.144;2023-06-10T02:03:02;16.90;99.90
45619;DHT22;31343;47.520;19.144;2023-06-10T02:05:28;16.80;99.90
45619;DHT22;31343;47.520;19.144;2023-06-10T02:07:54;16.90;99.90
45619;DHT22;31343;47.520;19.144;2023-06-10T02:10:20;16.80;99.90
45619;DHT22;31343;47.520;19.144;2023-06-10T02:12:45;16.90;99.90
45619;DHT22;31343;47.520;19.144;2023-06-10T02:15:11;16.80;99.90
45619;DHT22;31343;47.520;19.144;2023-06-10T02:17:37;16.80;99.90
45619;DHT22;31343;47.520;19.144;2023-06-10T02:20:04;16.70;99.90
45619;DHT22;31343;47.520;19.144;2023-06-10T02:22:33;16.70;99.90
45619;DHT22;31343;47.520;19.144;2023-06-10T02:25:00;16.80;99.90
45619;DHT22;31343;47.520;19.144;2023-06-10T02:27:25;16.70;99.90
45619;DHT22;31343;47.520;19.144;2023-06-10T02:29:51;16.70;99.90
45619;DHT22;31343;47.520;19.144;2023-06-10T02:32:17;16.80;99.90
45619;DHT22;31343;47.520;19.144;2023-06-10T02:34:43;16.80;99.90
45619;DHT22;31343;47.520;19.144;2023-06-10T02:37:09;16.80;99.90
45619;DHT22;31343;47.520;19.144;2023-06-10T02:39:35;16.80;99.90
45619;DHT22;31343;47.520;19.144;2023-06-10T02:42:01;16.80;99.90
45619;DHT22;31343;47.520;19.144;2023-06-10T02:44:26;16.80;99.90
45619;DHT22;31343;47.520;19.144;2023-06-10T02:46:53;16.80;99.90
45619;DHT22;31343;47.520;19.144;2023-06-10T02:49:19;16.90;99.90
45619;DHT22;31343;47.520;19.144;2023-06-10T02:51:44;16.90;99.90
45619;DHT22;31343;47.520;19.144;2023-06-10T02:54:10;16.80;99.90
45619;DHT22;31343;47.520;19.144;2023-06-10T02:56:36;16.80;99.90
45619;DHT22;31343;47.520;19.144;2023-06-10T02:59:07;16.80;99.90
45619;DHT22;31343;47.520;19.144;2023-06-10T03:01:33;16.90;99.90
45619;DHT22;31343;47.520;19.144;2023-06-10T03:04:03;16.90;99.90
45619;DHT22;31343;47.520;19.144;2023-06-10T03:06:29;16.90;99.90
45619;DHT22;31343;47.520;19.144;2023-06-10T03:08:55;16.90;99.90
45619;DHT22;31343;47.520;19.144;2023-06-10T03:11:21;17.00;99.90
45619;DHT22;31343;47.520;19.144;2023-06-10T03:13:46;17.00;99.90
45619;DHT22;31343;47.520;19.144;2023-06-10T03:16:13;17.00;99.90
45619;DHT22;31343;47.520;19.144;2023-06-10T03:18:39;17.10;99.90
45619;DHT22;31343;47.520;19.144;2023-06-10T03:21:05;17.10;99.90
45619;DHT22;31343;47.520;19.144;2023-06-10T03:23:31;17.10;99.90
45619;DHT22;31343;47.520;19.144;2023-06-10T03:25:56;17.20;99.90
45619;DHT22;31343;47.520;19.144;2023-06-10T03:28:22;17.10;99.90
45619;DHT22;31343;47.520;19.144;2023-06-10T03:30:48;17.20;99.90
45619;DHT22;31343;47.520;19.144;2023-06-10T03:33:14;17.20;99.90
45619;DHT22;31343;47.520;19.144;2023-06-10T03:35:39;17.30;99.90
45619;DHT22;31343;47.520;19.144;2023-06-10T03:38:05;17.30;99.90
45619;DHT22;31343;47.520;19.144;2023-06-10T03:40:31;17.30;99.90
45619;DHT22;31343;47.520;19.144;2023-06-10T03:43:00;17.50;99.90
45619;DHT22;31343;47.520;19.144;2023-06-10T03:45:27;17.40;99.90
45619;DHT22;31343;47.520;19.144;2023-06-10T03:47:54;17.50;99.90
45619;DHT22;31343;47.520;19.144;2023-06-10T03:50:21;17.50;99.90
45619;DHT22;31343;47.520;19.144;2023-06-10T03:52:48;17.50;99.90
45619;DHT22;31343;47.520;19.144;2023-06-10T03:55:14;17.50;99.90
45619;DHT22;31343;47.520;19.144;2023-06-10T03:57:43;17.70;99.90
45619;DHT22;31343;47.520;19.144;2023-06-10T04:00:10;17.60;99.90
45619;DHT22;31343;47.520;19.144;2023-06-10T04:02:39;17.60;99.90
45619;DHT22;31343;47.520;19.144;2023-06-10T04:05:15;17.60;99.90
45619;DHT22;31343;47.520;19.144;2023-06-10T04:07:42;17.70;99.90
45619;DHT22;31343;47.520;19.144;2023-06-10T04:10:09;17.70;99.90
45619;DHT22;31343;47.520;19.144;2023-06-10T04:12:36;17.60;99.90
45619;DHT22;31343;47.520;19.144;2023-06-10T04:15:03;17.60;99.90
45619;DHT22;31343;47.520;19.144;2023-06-10T04:17:29;17.70;99.90
45619;DHT22;31343;47.520;19.144;2023-06-10T04:19:56;17.70;99.90
45619;DHT22;31343;47.520;19.144;2023-06-10T04:22:22;17.70;99.90
45619;DHT22;31343;47.520;19.144;2023-06-10T04:24:48;17.60;99.90
45619;DHT22;31343;47.520;19.144;2023-06-10T04:27:14;17.60;99.90
45619;DHT22;31343;47.520;19.144;2023-06-10T04:29:40;17.60;99.90
45619;DHT22;31343;47.520;19.144;2023-06-10T04:32:06;17.60;99.90
45619;DHT22;31343;47.520;19.144;2023-06-10T04:34:36;17.50;99.90
45619;DHT22;31343;47.520;19.144;2023-06-10T04:37:04;17.60;99.90
45619;DHT22;31343;47.520;19.144;2023-06-10T04:39:31;17.60;99.90
45619;DHT22;31343;47.520;19.144;2023-06-10T04:41:57;17.50;99.90
45619;DHT22;31343;47.520;19.144;2023-06-10T04:44:24;17.60;99.90
45619;DHT22;31343;47.520;19.144;2023-06-10T04:46:50;17.60;99.90
45619;DHT22;31343;47.520;19.144;2023-06-10T04:49:17;17.60;99.90
45619;DHT22;31343;47.520;19.144;2023-06-10T04:51:43;17.60;99.90
45619;DHT22;31343;47.520;19.144;2023-06-10T04:54:08;17.60;99.90
45619;DHT22;31343;47.520;19.144;2023-06-10T04:56:34;17.70;99.90
45619;DHT22;31343;47.520;19.144;2023-06-10T04:59:01;17.70;99.90
45619;DHT22;31343;47.520;19.144;2023-06-10T05:01:27;17.80;99.90
45619;DHT22;31343;47.520;19.144;2023-06-10T05:03:53;17.80;99.90
45619;DHT22;31343;47.520;19.144;2023-06-10T05:06:20;17.90;99.90
45619;DHT22;31343;47.520;19.144;2023-06-10T05:08:45;18.00;99.90
45619;DHT22;31343;47.520;19.144;2023-06-10T05:11:11;18.10;99.90
45619;DHT22;31343;47.520;19.144;2023-06-10T05:13:37;18.10;99.90
45619;DHT22;31343;47.520;19.144;2023-06-10T05:16:03;18.20;99.90
45619;DHT22;31343;47.520;19.144;2023-06-10T05:18:29;18.30;99.90
45619;DHT22;31343;47.520;19.144;2023-06-10T05:20:56;18.40;99.90
45619;DHT22;31343;47.520;19.144;2023-06-10T05:23:21;18.60;99.90
45619;DHT22;31343;47.520;19.144;2023-06-10T05:25:47;18.70;99.90
45619;DHT22;31343;47.520;19.144;2023-06-10T05:28:13;19.00;99.90
45619;DHT22;31343;47.520;19.144;2023-06-10T05:30:39;19.30;99.90
45619;DHT22;31343;47.520;19.144;2023-06-10T05:33:05;19.50;99.90
45619;DHT22;31343;47.520;19.144;2023-06-10T05:35:31;19.80;99.90
45619;DHT22;31343;47.520;19.144;2023-06-10T05:37:57;19.80;99.90
45619;DHT22;31343;47.520;19.144;2023-06-10T05:40:23;19.80;99.90
45619;DHT22;31343;47.520;19.144;2023-06-10T05:42:49;19.90;99.90
45619;DHT22;31343;47.520;19.144;2023-06-10T05:45:14;19.90;99.90
45619;DHT22;31343;47.520;19.144;2023-06-10T05:47:40;20.00;99.90
45619;DHT22;31343;47.520;19.144;2023-06-10T05:50:07;20.30;99.90
45619;DHT22;31343;47.520;19.144;2023-06-10T05:52:35;20.60;99.90
45619;DHT22;31343;47.520;19.144;2023-06-10T05:55:04;20.80;99.90
45619;DHT22;31343;47.520;19.144;2023-06-10T05:57:30;20.80;99.90
45619;DHT22;31343;47.520;19.144;2023-06-10T05:59:57;20.60;99.90
45619;DHT22;31343;47.520;19.144;2023-06-10T06:02:23;20.40;99.90
45619;DHT22;31343;47.520;19.144;2023-06-10T06:04:49;20.10;99.90
45619;DHT22;31343;47.520;19.144;2023-06-10T06:07:14;19.90;99.90
45619;DHT22;31343;47.520;19.144;2023-06-10T06:09:40;19.60;99.90
45619;DHT22;31343;47.520;19.144;2023-06-10T06:12:07;19.60;99.90
45619;DHT22;31343;47.520;19.144;2023-06-10T06:14:37;19.50;99.90
45619;DHT22;31343;47.520;19.144;2023-06-10T06:17:05;19.70;99.90
45619;DHT22;31343;47.520;19.144;2023-06-10T06:19:31;19.90;99.90
45619;DHT22;31343;47.520;19.144;2023-06-10T06:21:57;20.10;99.90
45619;DHT22;31343;47.520;19.144;2023-06-10T06:24:22;20.20;99.90
45619;DHT22;31343;47.520;19.144;2023-06-10T06:26:48;20.50;99.90
45619;DHT22;31343;47.520;19.144;2023-06-10T06:29:14;20.70;99.90
45619;DHT22;31343;47.520;19.144;2023-06-10T06:31:39;20.80;99.90
45619;DHT22;31343;47.520;19.144;2023-06-10T06:34:05;21.00;99.90
45619;DHT22;31343;47.520;19.144;2023-06-10T06:36:31;20.90;99.90
45619;DHT22;31343;47.520;19.144;2023-06-10T06:38:57;21.10;99.90
45619;DHT22;31343;47.520;19.144;2023-06-10T06:41:27;21.20;99.90
45619;DHT22;31343;47.520;19.144;2023-06-10T06:43:54;21.20;99.90
45619;DHT22;31343;47.520;19.144;2023-06-10T06:46:20;21.30;99.90
45619;DHT22;31343;47.520;19.144;2023-06-10T06:48:47;21.20;99.90
45619;DHT22;31343;47.520;19.144;2023-06-10T06:51:12;21.30;99.90
45619;DHT22;31343;47.520;19.144;2023-06-10T06:53:39;21.20;99.90
45619;DHT22;31343;47.520;19.144;2023-06-10T06:56:11;21.10;99.90
45619;DHT22;31343;47.520;19.144;2023-06-10T06:58:38;20.90;99.90
45619;DHT22;31343;47.520;19.144;2023-06-10T07:01:04;20.70;99.90
45619;DHT22;31343;47.520;19.144;2023-06-10T07:03:30;20.90;99.90
45619;DHT22;31343;47.520;19.144;2023-06-10T07:05:56;21.10;99.90
45619;DHT22;31343;47.520;19.144;2023-06-10T07:08:27;21.40;99.90
45619;DHT22;31343;47.520;19.144;2023-06-10T07:10:53;21.40;99.90
45619;DHT22;31343;47.520;19.144;2023-06-10T07:13:19;21.70;99.90
45619;DHT22;31343;47.520;19.144;2023-06-10T07:15:46;21.60;99.90
45619;DHT22;31343;47.520;19.144;2023-06-10T07:18:11;21.50;99.90
45619;DHT22;31343;47.520;19.144;2023-06-10T07:20:37;21.50;99.90
45619;DHT22;31343;47.520;19.144;2023-06-10T07:23:03;21.80;99.90
45619;DHT22;31343;47.520;19.144;2023-06-10T07:25:29;22.10;99.90
45619;DHT22;31343;47.520;19.144;2023-06-10T07:27:54;22.20;99.90
45619;DHT22;31343;47.520;19.144;2023-06-10T07:30:20;22.10;99.90
45619;DHT22;31343;47.520;19.144;2023-06-10T07:32:46;22.00;99.90
45619;DHT22;31343;47.520;19.144;2023-06-10T07:35:12;22.10;99.90
45619;DHT22;31343;47.520;19.144;2023-06-10T07:37:38;22.20;99.90
45619;DHT22;31343;47.520;19.144;2023-06-10T07:40:04;22.20;99.90
45619;DHT22;31343;47.520;19.144;2023-06-10T07:42:32;22.20;99.90
45619;DHT22;31343;47.520;19.144;2023-06-10T07:44:58;22.30;99.90
45619;DHT22;31343;47.520;19.144;2023-06-10T07:47:24;22.10;99.90
45619;DHT22;31343;47.520;19.144;2023-06-10T07:49:51;22.30;99.90
45619;DHT22;31343;47.520;19.144;2023-06-10T07:52:17;22.40;99.90
45619;DHT22;31343;47.520;19.144;2023-06-10T07:54:43;22.50;99.90
45619;DHT22;31343;47.520;19.144;2023-06-10T07:57:10;22.40;99.90
45619;DHT22;31343;47.520;19.144;2023-06-10T07:59:36;22.40;99.90
45619;DHT22;31343;47.520;19.144;2023-06-10T08:02:03;22.30;99.90
45619;DHT22;31343;47.520;19.144;2023-06-10T08:04:29;22.60;99.90
45619;DHT22;31343;47.520;19.144;2023-06-10T08:06:58;23.00;99.90
45619;DHT22;31343;47.520;19.144;2023-06-10T08:09:24;23.30;99.90
45619;DHT22;31343;47.520;19.144;2023-06-10T08:11:50;23.40;99.90
45619;DHT22;31343;47.520;19.144;2023-06-10T08:14:16;23.50;99.90
45619;DHT22;31343;47.520;19.144;2023-06-10T08:16:43;23.40;99.90
45619;DHT22;31343;47.520;19.144;2023-06-10T08:19:09;23.70;99.90
45619;DHT22;31343;47.520;19.144;2023-06-10T08:21:35;23.80;99.90
45619;DHT22;31343;47.520;19.144;2023-06-10T08:24:03;24.20;99.90
45619;DHT22;31343;47.520;19.144;2023-06-10T08:26:28;24.40;99.90
45619;DHT22;31343;47.520;19.144;2023-06-10T08:28:54;24.80;99.90
45619;DHT22;31343;47.520;19.144;2023-06-10T08:31:21;25.00;99.90
45619;DHT22;31343;47.520;19.144;2023-06-10T08:33:47;24.90;99.90
45619;DHT22;31343;47.520;19.144;2023-06-10T08:36:12;25.30;99.90
45619;DHT22;31343;47.520;19.144;2023-06-10T08:38:38;25.70;99.90
45619;DHT22;31343;47.520;19.144;2023-06-10T08:41:05;25.90;99.90
45619;DHT22;31343;47.520;19.144;2023-06-10T08:43:45;26.30;99.90
45619;DHT22;31343;47.520;19.144;2023-06-10T08:46:14;26.40;99.90
45619;DHT22;31343;47.520;19.144;2023-06-10T08:48:44;26.10;99.90
45619;DHT22;31343;47.520;19.144;2023-06-10T08:51:11;25.80;99.90
45619;DHT22;31343;47.520;19.144;2023-06-10T08:53:41;25.40;99.90
45619;DHT22;31343;47.520;19.144;2023-06-10T08:56:13;26.00;99.90
45619;DHT22;31343;47.520;19.144;2023-06-10T08:58:41;26.30;99.90
45619;DHT22;31343;47.520;19.144;2023-06-10T09:01:08;26.50;99.90
45619;DHT22;31343;47.520;19.144;2023-06-10T09:03:37;26.50;99.90
45619;DHT22;31343;47.520;19.144;2023-06-10T09:06:05;25.90;99.90
45619;DHT22;31343;47.520;19.144;2023-06-10T09:08:33;26.20;99.90
45619;DHT22;31343;47.520;19.144;2023-06-10T09:10:58;26.50;99.90
45619;DHT22;31343;47.520;19.144;2023-06-10T09:13:24;26.60;99.90
45619;DHT22;31343;47.520;19.144;2023-06-10T09:15:50;26.50;99.90
45619;DHT22;31343;47.520;19.144;2023-06-10T09:18:16;25.60;99.90
45619;DHT22;31343;47.520;19.144;2023-06-10T09:20:43;25.40;99.90
45619;DHT22;31343;47.520;19.144;2023-06-10T09:23:11;24.40;99.90
45619;DHT22;31343;47.520;19.144;2023-06-10T09:25:38;24.20;99.90
45619;DHT22;31343;47.520;19.144;2023-06-10T09:28:13;24.40;99.90
45619;DHT22;31343;47.520;19.144;2023-06-10T09:30:39;24.30;99.90
45619;DHT22;31343;47.520;19.144;2023-06-10T09:33:11;23.80;99.90
45619;DHT22;31343;47.520;19.144;2023-06-10T09:35:48;23.50;99.90
45619;DHT22;31343;47.520;19.144;2023-06-10T09:38:23;23.20;99.90
45619;DHT22;31343;47.520;19.144;2023-06-10T09:40:54;22.90;99.90
45619;DHT22;31343;47.520;19.144;2023-06-10T09:43:21;22.60;99.90
45619;DHT22;31343;47.520;19.144;2023-06-10T09:45:50;22.30;99.90
45619;DHT22;31343;47.520;19.144;2023-06-10T09:48:18;22.20;99.90
45619;DHT22;31343;47.520;19.144;2023-06-10T09:50:45;22.20;99.90
45619;DHT22;31343;47.520;19.144;2023-06-10T09:53:11;22.30;99.90
45619;DHT22;31343;47.520;19.144;2023-06-10T09:55:41;22.50;99.90
45619;DHT22;31343;47.520;19.144;2023-06-10T09:58:07;22.80;99.90
45619;DHT22;31343;47.520;19.144;2023-06-10T10:00:33;23.00;99.90
45619;DHT22;31343;47.520;19.144;2023-06-10T10:03:00;23.40;99.90
45619;DHT22;31343;47.520;19.144;2023-06-10T10:05:27;23.50;99.90
45619;DHT22;31343;47.520;19.144;2023-06-10T10:07:53;23.60;99.90
45619;DHT22;31343;47.520;19.144;2023-06-10T10:10:21;23.80;99.90
45619;DHT22;31343;47.520;19.144;2023-06-10T10:12:51;23.90;99.90
45619;DHT22;31343;47.520;19.144;2023-06-10T10:15:19;24.00;99.90
45619;DHT22;31343;47.520;19.144;2023-06-10T10:18:09;24.10;99.90
45619;DHT22;31343;47.520;19.144;2023-06-10T10:20:37;24.00;99.90
45619;DHT22;31343;47.520;19.144;2023-06-10T10:23:07;24.00;99.90
45619;DHT22;31343;47.520;19.144;2023-06-10T10:25:39;24.20;99.90
45619;DHT22;31343;47.520;19.144;2023-06-10T10:28:10;24.20;99.90
45619;DHT22;31343;47.520;19.144;2023-06-10T10:30:44;24.60;99.90
45619;DHT22;31343;47.520;19.144;2023-06-10T10:33:28;25.10;99.90
45619;DHT22;31343;47.520;19.144;2023-06-10T10:35:58;25.30;99.90
45619;DHT22;31343;47.520;19.144;2023-06-10T10:38:24;25.30;99.90
45619;DHT22;31343;47.520;19.144;2023-06-10T10:40:51;25.10;99.90
45619;DHT22;31343;47.520;19.144;2023-06-10T10:43:17;25.10;99.90
45619;DHT22;31343;47.520;19.144;2023-06-10T10:45:46;24.90;99.90
45619;DHT22;31343;47.520;19.144;2023-06-10T10:48:12;24.60;99.90
45619;DHT22;31343;47.520;19.144;2023-06-10T10:50:39;24.60;99.90
45619;DHT22;31343;47.520;19.144;2023-06-10T10:53:06;24.80;99.90
45619;DHT22;31343;47.520;19.144;2023-06-10T10:55:32;25.10;99.90
45619;DHT22;31343;47.520;19.144;2023-06-10T10:58:07;25.40;99.90
45619;DHT22;31343;47.520;19.144;2023-06-10T11:00:36;25.30;99.90
45619;DHT22;31343;47.520;19.144;2023-06-10T11:05:44;25.80;99.90
45619;DHT22;31343;47.520;19.144;2023-06-10T11:08:14;26.00;99.90
45619;DHT22;31343;47.520;19.144;2023-06-10T11:10:41;25.40;99.90
45619;DHT22;31343;47.520;19.144;2023-06-10T11:13:20;25.00;99.90
45619;DHT22;31343;47.520;19.144;2023-06-10T11:15:50;24.60;99.90
45619;DHT22;31343;47.520;19.144;2023-06-10T11:18:27;24.60;99.90
45619;DHT22;31343;47.520;19.144;2023-06-10T11:21:30;24.80;99.90
45619;DHT22;31343;47.520;19.144;2023-06-10T11:23:58;25.50;99.90
45619;DHT22;31343;47.520;19.144;2023-06-10T11:31:30;28.10;98.00
45619;DHT22;31343;47.520;19.144;2023-06-10T11:34:01;28.00;99.20
45619;DHT22;31343;47.520;19.144;2023-06-10T11:36:29;28.30;98.60
45619;DHT22;31343;47.520;19.144;2023-06-10T11:39:00;28.60;99.70
45619;DHT22;31343;47.520;19.144;2023-06-10T11:41:27;29.30;98.10
45619;DHT22;31343;47.520;19.144;2023-06-10T11:43:54;29.10;96.30
45619;DHT22;31343;47.520;19.144;2023-06-10T11:46:22;29.00;97.50
45619;DHT22;31343;47.520;19.144;2023-06-10T11:48:52;29.50;96.50
45619;DHT22;31343;47.520;19.144;2023-06-10T11:51:18;29.50;95.50
45619;DHT22;31343;47.520;19.144;2023-06-10T11:53:48;30.40;95.70
45619;DHT22;31343;47.520;19.144;2023-06-10T11:56:19;31.20;95.40
45619;DHT22;31343;47.520;19.144;2023-06-10T11:58:45;31.50;94.20
45619;DHT22;31343;47.520;19.144;2023-06-10T12:01:11;31.10;93.30
45619;DHT22;31343;47.520;19.144;2023-06-10T12:03:38;31.20;93.40
45619;DHT22;31343;47.520;19.144;2023-06-10T12:06:05;31.40;91.10
45619;DHT22;31343;47.520;19.144;2023-06-10T12:08:32;31.80;91.10
45619;DHT22;31343;47.520;19.144;2023-06-10T12:10:58;32.60;90.70
45619;DHT22;31343;47.520;19.144;2023-06-10T12:13:28;32.90;89.30
45619;DHT22;31343;47.520;19.144;2023-06-10T12:15:54;32.70;87.50
45619;DHT22;31343;47.520;19.144;2023-06-10T12:18:24;32.60;90.30
45619;DHT22;31343;47.520;19.144;2023-06-10T12:20:50;31.80;88.50
45619;DHT22;31343;47.520;19.144;2023-06-10T12:23:18;31.60;88.80
45619;DHT22;31343;47.520;19.144;2023-06-10T12:25:54;32.10;90.50
45619;DHT22;31343;47.520;19.144;2023-06-10T12:28:23;31.50;90.00
45619;DHT22;31343;47.520;19.144;2023-06-10T12:30:49;30.40;90.90
45619;DHT22;31343;47.520;19.144;2023-06-10T12:33:20;29.90;91.40
45619;DHT22;31343;47.520;19.144;2023-06-10T12:35:50;29.40;93.00
45619;DHT22;31343;47.520;19.144;2023-06-10T12:38:23;29.20;91.50
45619;DHT22;31343;47.520;19.144;2023-06-10T12:41:04;29.10;90.80
45619;DHT22;31343;47.520;19.144;2023-06-10T12:43:31;28.60;92.10
45619;DHT22;31343;47.520;19.144;2023-06-10T12:46:08;28.80;92.50
45619;DHT22;31343;47.520;19.144;2023-06-10T12:48:34;28.50;91.90
45619;DHT22;31343;47.520;19.144;2023-06-10T12:51:01;28.80;93.90
45619;DHT22;31343;47.520;19.144;2023-06-10T12:53:27;28.80;95.40
45619;DHT22;31343;47.520;19.144;2023-06-10T12:55:53;28.60;96.20
45619;DHT22;31343;47.520;19.144;2023-06-10T12:58:22;28.60;95.90
45619;DHT22;31343;47.520;19.144;2023-06-10T13:00:49;28.60;96.20
45619;DHT22;31343;47.520;19.144;2023-06-10T13:03:17;28.70;96.30
45619;DHT22;31343;47.520;19.144;2023-06-10T13:05:43;28.80;95.00
45619;DHT22;31343;47.520;19.144;2023-06-10T13:08:09;28.90;95.10
45619;DHT22;31343;47.520;19.144;2023-06-10T13:10:38;28.40;96.10
45619;DHT22;31343;47.520;19.144;2023-06-10T13:13:05;28.20;96.10
45619;DHT22;31343;47.520;19.144;2023-06-10T13:15:33;28.00;96.80
45619;DHT22;31343;47.520;19.144;2023-06-10T13:18:05;27.60;98.00
45619;DHT22;31343;47.520;19.144;2023-06-10T13:20:31;27.50;97.40
45619;DHT22;31343;47.520;19.144;2023-06-10T13:22:58;27.20;99.10
45619;DHT22;31343;47.520;19.144;2023-06-10T13:25:23;27.10;99.70
45619;DHT22;31343;47.520;19.144;2023-06-10T13:27:49;27.00;99.30
45619;DHT22;31343;47.520;19.144;2023-06-10T13:30:16;27.10;99.20
45619;DHT22;31343;47.520;19.144;2023-06-10T13:32:42;27.20;99.50
45619;DHT22;31343;47.520;19.144;2023-06-10T13:35:09;27.30;99.90
45619;DHT22;31343;47.520;19.144;2023-06-10T13:37:35;27.50;98.50
45619;DHT22;31343;47.520;19.144;2023-06-10T13:40:01;27.40;98.10
45619;DHT22;31343;47.520;19.144;2023-06-10T13:42:29;27.40;98.20
45619;DHT22;31343;47.520;19.144;2023-06-10T13:44:55;27.20;98.90
45619;DHT22;31343;47.520;19.144;2023-06-10T13:47:22;26.90;99.90
45619;DHT22;31343;47.520;19.144;2023-06-10T13:49:47;26.80;99.90
45619;DHT22;31343;47.520;19.144;2023-06-10T13:52:13;26.40;99.90
45619;DHT22;31343;47.520;19.144;2023-06-10T13:54:40;25.90;99.90
45619;DHT22;31343;47.520;19.144;2023-06-10T13:57:05;25.80;99.90
45619;DHT22;31343;47.520;19.144;2023-06-10T13:59:31;25.40;99.90
45619;DHT22;31343;47.520;19.144;2023-06-10T14:01:57;25.00;99.90
45619;DHT22;31343;47.520;19.144;2023-06-10T14:04:23;24.90;99.90
45619;DHT22;31343;47.520;19.144;2023-06-10T14:06:49;24.90;99.90
45619;DHT22;31343;47.520;19.144;2023-06-10T14:09:15;24.80;99.90
45619;DHT22;31343;47.520;19.144;2023-06-10T14:11:43;24.80;99.90
45619;DHT22;31343;47.520;19.144;2023-06-10T14:14:09;24.80;99.90
45619;DHT22;31343;47.520;19.144;2023-06-10T14:16:35;24.80;99.90
45619;DHT22;31343;47.520;19.144;2023-06-10T14:19:01;24.90;99.90
45619;DHT22;31343;47.520;19.144;2023-06-10T14:21:27;24.90;99.90
45619;DHT22;31343;47.520;19.144;2023-06-10T14:23:53;24.90;99.90
45619;DHT22;31343;47.520;19.144;2023-06-10T14:26:19;25.00;99.90
45619;DHT22;31343;47.520;19.144;2023-06-10T14:28:48;24.90;99.90
45619;DHT22;31343;47.520;19.144;2023-06-10T14:31:15;25.00;99.90
45619;DHT22;31343;47.520;19.144;2023-06-10T14:33:42;25.10;99.90
45619;DHT22;31343;47.520;19.144;2023-06-10T14:36:09;25.10;99.90
45619;DHT22;31343;47.520;19.144;2023-06-10T14:38:36;25.10;99.90
45619;DHT22;31343;47.520;19.144;2023-06-10T14:41:01;25.30;99.90
45619;DHT22;31343;47.520;19.144;2023-06-10T14:43:27;25.30;99.90
45619;DHT22;31343;47.520;19.144;2023-06-10T14:45:53;25.40;99.90
45619;DHT22;31343;47.520;19.144;2023-06-10T14:48:21;25.50;99.90
45619;DHT22;31343;47.520;19.144;2023-06-10T14:50:47;25.50;99.90
45619;DHT22;31343;47.520;19.144;2023-06-10T14:53:19;25.50;99.90
45619;DHT22;31343;47.520;19.144;2023-06-10T14:55:45;25.40;99.90
45619;DHT22;31343;47.520;19.144;2023-06-10T14:58:11;25.40;99.90
45619;DHT22;31343;47.520;19.144;2023-06-10T15:00:37;25.40;99.90
45619;DHT22;31343;47.520;19.144;2023-06-10T15:03:04;25.50;99.90
45619;DHT22;31343;47.520;19.144;2023-06-10T15:05:30;25.70;99.90
45619;DHT22;31343;47.520;19.144;2023-06-10T15:07:56;25.60;99.90
45619;DHT22;31343;47.520;19.144;2023-06-10T15:10:21;25.40;99.90
45619;DHT22;31343;47.520;19.144;2023-06-10T15:12:47;25.00;99.90
45619;DHT22;31343;47.520;19.144;2023-06-10T15:15:13;24.50;99.90
45619;DHT22;31343;47.520;19.144;2023-06-10T15:17:39;24.20;99.90
45619;DHT22;31343;47.520;19.144;2023-06-10T15:20:05;23.80;99.90
45619;DHT22;31343;47.520;19.144;2023-06-10T15:22:32;23.30;99.90
45619;DHT22;31343;47.520;19.144;2023-06-10T15:24:57;23.00;99.90
45619;DHT22;31343;47.520;19.144;2023-06-10T15:27:23;22.70;99.90
45619;DHT22;31343;47.520;19.144;2023-06-10T15:29:49;22.40;99.90